Time;durP1;ratioP1;P1;durP2;ratioP2;P2;SDS_P1;SDS_P2;PMS_P1;PMS_P2;Temp;Humidity;BMP_temperature;BMP_pressure;BME280_temperature;BME280_humidity;BME280_pressure;Samples;Min_cycle;Max_cycle;Signal;HPM_P1;HPM_P2
2023/08/10 00:00:00;;;;;;;2.75;1.10;;;21.50;67.80;;;;;;5066334;28;20086;-61
2023/08/10 00:02:26;;;;;;;2.03;0.90;;;21.50;67.80;;;;;;5073255;28;20542;-61
2023/08/10 00:04:52;;;;;;;2.28;0.90;;;21.50;67.80;;;;;;5073439;28;20048;-61
2023/08/10 00:07:18;;;;;;;1.75;0.80;;;21.50;67.80;;;;;;5072979;28;20070;-61
2023/08/10 00:09:43;;;;;;;3.97;0.88;;;21.50;67.80;;;;;;5073697;28;20091;-61
2023/08/10 00:12:09;;;;;;;1.70;0.70;;;21.50;67.80;;;;;;5072245;28;20060;-61
2023/08/10 00:14:34;;;;;;;1.40;0.68;;;21.40;68.40;;;;;;5071072;28;20033;-61
2023/08/10 00:17:00;;;;;;;2.83;0.70;;;21.50;67.90;;;;;;5073332;28;20072;-61
2023/08/10 00:19:25;;;;;;;1.75;0.80;;;21.50;67.90;;;;;;5073071;28;20044;-61
2023/08/10 00:21:51;;;;;;;2.65;0.60;;;21.50;67.90;;;;;;5072076;28;20041;-62
2023/08/10 00:24:16;;;;;;;1.95;0.63;;;21.40;67.80;;;;;;5073438;28;20143;-61
2023/08/10 00:26:42;;;;;;;3.03;0.70;;;21.40;67.80;;;;;;5071676;28;20044;-61
2023/08/10 00:29:08;;;;;;;1.55;0.80;;;21.40;67.90;;;;;;5072789;28;20044;-61
2023/08/10 00:31:33;;;;;;;1.55;0.70;;;21.40;67.90;;;;;;5072927;28;20079;-61
2023/08/10 00:33:59;;;;;;;1.60;0.77;;;21.40;67.90;;;;;;5073217;28;20120;-61
2023/08/10 00:36:25;;;;;;;2.33;0.70;;;21.40;67.80;;;;;;5072279;28;20407;-61
2023/08/10 00:38:50;;;;;;;2.78;0.70;;;21.40;67.90;;;;;;5072685;28;20041;-61
2023/08/10 00:41:16;;;;;;;2.45;0.70;;;21.40;68.50;;;;;;5071775;28;20507;-61
2023/08/10 00:43:42;;;;;;;2.88;0.73;;;21.40;67.90;;;;;;5071367;28;20408;-61
2023/08/10 00:46:09;;;;;;;3.80;1.00;;;21.40;67.90;;;;;;5072909;28;20041;-61
2023/08/10 00:48:35;;;;;;;1.65;0.57;;;21.40;67.90;;;;;;5055398;28;20091;-61
2023/08/10 00:51:00;;;;;;;1.63;0.60;;;21.40;67.90;;;;;;5070942;28;20063;-61
2023/08/10 00:53:26;;;;;;;2.28;0.70;;;21.40;67.90;;;;;;5054881;28;20044;-61
2023/08/10 00:55:52;;;;;;;1.63;0.75;;;21.30;67.90;;;;;;5071838;28;20036;-61
2023/08/10 00:58:19;;;;;;;2.13;0.73;;;21.40;68.00;;;;;;5054721;28;20037;-61
2023/08/10 01:00:45;;;;;;;2.47;0.70;;;21.40;67.90;;;;;;5038332;28;20040;-61
2023/08/10 01:03:11;;;;;;;2.38;0.90;;;21.40;68.00;;;;;;5070626;28;20072;-61
2023/08/10 01:05:41;;;;;;;1.70;0.70;;;21.40;68.60;;;;;;5072204;28;20068;-61
2023/08/10 01:08:20;;;;;;;1.80;0.65;;;21.30;67.90;;;;;;5072494;28;20045;-61
2023/08/10 01:11:00;;;;;;;1.52;0.70;;;21.40;68.00;;;;;;5053697;28;20041;-61
2023/08/10 01:13:55;;;;;;;3.03;0.70;;;21.30;67.90;;;;;;5071545;28;20052;-61
2023/08/10 01:16:20;;;;;;;1.15;0.50;;;21.30;67.90;;;;;;5071286;28;20072;-61
2023/08/10 01:18:46;;;;;;;1.25;0.65;;;21.30;68.00;;;;;;5053667;28;20068;-61
2023/08/10 01:21:50;;;;;;;1.45;0.70;;;21.30;67.90;;;;;;5037364;28;20036;-61
2023/08/10 01:24:20;;;;;;;2.83;0.60;;;21.30;68.00;;;;;;5061473;28;20048;-62
2023/08/10 01:26:45;;;;;;;2.33;1.10;;;21.30;68.00;;;;;;5071096;28;20044;-61
2023/08/10 01:29:11;;;;;;;0.85;0.50;;;21.30;68.00;;;;;;5037751;28;20047;-61
2023/08/10 01:31:37;;;;;;;1.42;0.50;;;21.30;68.00;;;;;;5069997;28;20500;-61
2023/08/10 01:34:02;;;;;;;1.60;0.70;;;21.30;68.00;;;;;;5054735;28;20055;-61
2023/08/10 01:36:28;;;;;;;1.65;0.60;;;21.30;68.00;;;;;;5072103;28;20419;-61
2023/08/10 01:38:54;;;;;;;1.10;0.50;;;21.30;68.00;;;;;;5070096;28;20094;-61
2023/08/10 01:41:19;;;;;;;3.50;0.88;;;21.30;68.10;;;;;;5072344;28;20028;-61
2023/08/10 01:43:45;;;;;;;2.65;0.70;;;21.30;68.10;;;;;;5070691;28;20044;-61
2023/08/10 01:46:11;;;;;;;1.30;0.70;;;21.30;68.10;;;;;;5070113;28;20400;-61
2023/08/10 01:48:37;;;;;;;2.78;0.60;;;21.30;68.10;;;;;;5054174;28;20377;-61
2023/08/10 01:51:03;;;;;;;1.10;0.60;;;21.30;68.10;;;;;;5037487;28;20541;-61
2023/08/10 01:53:31;;;;;;;1.30;0.50;;;21.30;68.10;;;;;;5070484;28;20036;-61
2023/08/10 01:55:57;;;;;;;1.93;0.70;;;21.30;68.10;;;;;;5073168;28;20052;-61
2023/08/10 01:58:22;;;;;;;1.38;0.63;;;21.30;68.10;;;;;;5075149;28;20190;-61
2023/08/10 02:00:49;;;;;;;2.60;0.80;;;21.30;68.10;;;;;;5073454;28;20517;-60
2023/08/10 02:03:14;;;;;;;1.50;0.57;;;21.20;68.10;;;;;;5074784;28;20050;-60
2023/08/10 02:05:40;;;;;;;2.17;0.70;;;21.30;68.10;;;;;;5075262;28;20040;-61
2023/08/10 02:08:07;;;;;;;2.78;0.60;;;21.30;68.10;;;;;;5073870;28;20391;-61
2023/08/10 02:10:32;;;;;;;1.35;0.65;;;21.20;68.10;;;;;;5076203;28;20048;-61
2023/08/10 02:12:58;;;;;;;1.45;0.68;;;21.20;68.10;;;;;;5075623;28;20051;-61
2023/08/10 02:15:23;;;;;;;1.05;0.50;;;21.20;68.20;;;;;;5075091;28;20048;-60
2023/08/10 02:17:50;;;;;;;1.85;0.70;;;21.20;68.20;;;;;;5075521;28;20048;-61
2023/08/10 02:20:15;;;;;;;0.85;0.50;;;21.20;68.10;;;;;;5075151;28;20038;-61
2023/08/10 02:22:49;;;;;;;1.60;0.60;;;21.20;68.20;;;;;;5075317;28;20475;-61
2023/08/10 02:25:15;;;;;;;1.50;0.57;;;21.20;68.20;;;;;;5075908;28;20091;-60
2023/08/10 02:27:41;;;;;;;3.08;0.80;;;21.20;68.20;;;;;;5073415;28;20080;-61
2023/08/10 02:30:07;;;;;;;1.80;0.60;;;21.20;68.20;;;;;;5074282;28;20068;-61
2023/08/10 02:32:33;;;;;;;2.28;0.88;;;21.20;68.20;;;;;;5075077;28;20060;-61
2023/08/10 02:34:59;;;;;;;2.40;0.80;;;21.20;68.20;;;;;;5074814;28;20061;-61
2023/08/10 02:37:24;;;;;;;2.00;0.60;;;21.20;68.20;;;;;;5075482;28;20079;-61
2023/08/10 02:39:50;;;;;;;2.00;0.73;;;21.20;68.20;;;;;;5075334;28;20123;-61
2023/08/10 02:42:16;;;;;;;1.52;0.63;;;21.20;68.20;;;;;;5074555;28;20055;-60
2023/08/10 02:44:42;;;;;;;1.40;0.80;;;21.20;68.30;;;;;;5073830;28;20076;-61
2023/08/10 02:47:08;;;;;;;2.33;1.02;;;21.20;68.30;;;;;;5075046;28;20045;-61
2023/08/10 02:49:34;;;;;;;1.48;0.50;;;21.20;68.30;;;;;;5074430;28;20048;-61
2023/08/10 02:51:59;;;;;;;1.83;0.70;;;21.20;68.30;;;;;;5075083;28;20041;-61
2023/08/10 02:54:25;;;;;;;1.10;0.60;;;21.20;68.30;;;;;;5075057;28;20388;-61
2023/08/10 02:56:50;;;;;;;1.45;0.60;;;21.20;68.30;;;;;;5073942;28;20051;-61
2023/08/10 02:59:16;;;;;;;2.83;0.60;;;21.20;68.30;;;;;;5075283;28;20178;-62
2023/08/10 03:01:43;;;;;;;1.52;0.60;;;21.20;68.30;;;;;;5073130;28;20439;-61
2023/08/10 03:04:09;;;;;;;2.60;0.70;;;21.20;68.30;;;;;;5072884;28;20052;-61
2023/08/10 03:06:35;;;;;;;1.63;0.60;;;21.10;68.20;;;;;;5073032;28;20032;-60
2023/08/10 03:09:00;;;;;;;1.33;0.60;;;21.10;68.20;;;;;;5074800;28;20472;-61
2023/08/10 03:11:26;;;;;;;2.05;0.90;;;21.10;68.20;;;;;;5073261;28;20040;-61
2023/08/10 03:13:52;;;;;;;2.08;0.60;;;21.10;68.20;;;;;;5073314;28;20055;-61
2023/08/10 03:16:17;;;;;;;1.67;0.70;;;21.10;68.20;;;;;;5073181;28;20036;-60
2023/08/10 03:18:43;;;;;;;1.50;0.70;;;21.10;68.20;;;;;;5073378;28;20048;-61
2023/08/10 03:21:09;;;;;;;1.85;0.60;;;21.10;68.20;;;;;;5074809;28;20052;-60
2023/08/10 03:23:34;;;;;;;1.42;0.60;;;21.10;68.20;;;;;;5073647;28;20037;-60
2023/08/10 03:26:00;;;;;;;3.22;0.65;;;21.10;68.20;;;;;;5074742;28;20464;-60
2023/08/10 03:28:25;;;;;;;1.85;0.63;;;21.10;68.20;;;;;;5074332;28;20132;-61
2023/08/10 03:30:51;;;;;;;2.35;0.60;;;21.10;68.20;;;;;;5072102;28;20040;-61
2023/08/10 03:33:16;;;;;;;3.05;0.65;;;21.10;68.20;;;;;;5074172;28;20052;-61
2023/08/10 03:35:42;;;;;;;2.25;0.70;;;21.10;68.20;;;;;;5074059;28;20075;-61
2023/08/10 03:38:08;;;;;;;2.70;0.80;;;21.10;68.20;;;;;;5073391;28;20403;-61
2023/08/10 03:40:34;;;;;;;2.55;0.70;;;21.10;68.30;;;;;;5074096;28;20049;-61
2023/08/10 03:43:00;;;;;;;2.03;0.60;;;21.00;68.20;;;;;;5074285;28;20052;-61
2023/08/10 03:45:25;;;;;;;1.55;0.77;;;21.10;68.20;;;;;;5073682;28;20076;-61
2023/08/10 03:47:51;;;;;;;1.42;0.55;;;21.10;68.30;;;;;;5072253;28;20094;-61
2023/08/10 03:50:16;;;;;;;2.30;0.60;;;21.00;68.20;;;;;;5073436;28;20036;-60
2023/08/10 03:52:42;;;;;;;1.17;0.60;;;21.00;68.20;;;;;;5067370;28;20127;-61
2023/08/10 03:55:08;;;;;;;2.38;0.70;;;21.10;68.20;;;;;;5074032;28;20032;-61
2023/08/10 03:57:33;;;;;;;1.17;0.60;;;21.00;68.20;;;;;;5073676;28;20476;-61
2023/08/10 03:59:59;;;;;;;2.08;0.68;;;21.10;68.30;;;;;;5073392;28;20072;-61
2023/08/10 04:02:25;;;;;;;2.33;0.65;;;21.00;68.20;;;;;;5063765;28;20821;-61
2023/08/10 04:04:51;;;;;;;1.00;0.52;;;21.10;68.30;;;;;;5070713;28;20490;-61
2023/08/10 04:07:16;;;;;;;2.80;0.77;;;21.10;68.30;;;;;;5070718;28;20067;-61
2023/08/10 04:09:46;;;;;;;1.20;0.60;;;21.10;68.90;;;;;;5073356;28;20040;-61
2023/08/10 04:12:12;;;;;;;0.93;0.60;;;21.00;68.20;;;;;;5072327;28;20101;-61
2023/08/10 04:14:38;;;;;;;1.48;0.57;;;21.00;68.20;;;;;;5072725;28;20037;-61
2023/08/10 04:17:03;;;;;;;1.17;0.60;;;21.10;68.30;;;;;;5073300;28;20076;-61
2023/08/10 04:19:30;;;;;;;1.80;0.55;;;21.00;68.20;;;;;;5072625;28;20556;-60
2023/08/10 04:21:56;;;;;;;2.03;0.68;;;21.00;68.20;;;;;;5072278;28;20063;-61
2023/08/10 04:24:22;;;;;;;1.90;0.55;;;21.00;68.30;;;;;;5073462;28;20048;-61
2023/08/10 04:26:47;;;;;;;1.40;0.60;;;21.00;68.30;;;;;;5072127;28;20040;-60
2023/08/10 04:29:13;;;;;;;2.92;0.73;;;21.00;68.30;;;;;;5073089;28;20044;-61
2023/08/10 04:31:40;;;;;;;1.27;0.60;;;21.00;68.30;;;;;;5073051;28;20040;-61
2023/08/10 04:34:05;;;;;;;1.52;0.55;;;21.00;68.30;;;;;;5072901;28;20147;-61
2023/08/10 04:36:33;;;;;;;2.97;0.80;;;21.00;68.30;;;;;;5073152;28;20124;-61
2023/08/10 04:38:59;;;;;;;1.80;0.70;;;21.00;68.30;;;;;;5072803;28;20071;-61
2023/08/10 04:41:24;;;;;;;2.30;0.70;;;21.00;68.30;;;;;;5070745;28;20706;-61
2023/08/10 04:43:50;;;;;;;1.48;0.55;;;21.00;68.30;;;;;;5072777;28;20071;-61
2023/08/10 04:46:15;;;;;;;1.98;0.77;;;21.00;68.40;;;;;;5073145;28;20131;-61
2023/08/10 04:48:41;;;;;;;2.05;0.70;;;21.00;68.30;;;;;;5070520;28;20045;-61
2023/08/10 04:51:07;;;;;;;1.33;0.60;;;20.90;68.30;;;;;;5071867;28;20044;-61
2023/08/10 04:53:32;;;;;;;1.42;0.60;;;20.90;68.30;;;;;;5072756;28;20041;-61
2023/08/10 04:55:58;;;;;;;1.35;0.55;;;21.00;68.40;;;;;;5070429;28;20600;-61
2023/08/10 04:58:24;;;;;;;2.00;0.77;;;20.90;68.40;;;;;;5071486;28;20079;-61
2023/08/10 05:00:52;;;;;;;2.35;0.80;;;21.00;68.40;;;;;;5072695;28;20503;-60
2023/08/10 05:03:20;;;;;;;;;;;20.90;69.00;;;;;;5072434;28;20052;-60
2023/08/10 05:05:45;;;;;;;1.27;0.52;;;20.90;68.30;;;;;;5072662;28;19920;-61
2023/08/10 05:08:11;;;;;;;2.63;0.60;;;20.90;68.40;;;;;;5072046;28;20400;-60
2023/08/10 05:10:37;;;;;;;2.65;0.63;;;20.90;68.40;;;;;;5071653;28;20083;-60
2023/08/10 05:13:04;;;;;;;1.83;0.70;;;20.90;68.40;;;;;;5072541;28;20036;-60
2023/08/10 05:15:29;;;;;;;1.77;0.57;;;20.90;68.40;;;;;;5071290;28;20052;-61
2023/08/10 05:17:55;;;;;;;1.30;0.60;;;20.90;68.40;;;;;;5071617;28;20033;-61
2023/08/10 05:20:21;;;;;;;0.80;0.47;;;20.90;68.40;;;;;;5072826;28;20060;-61
2023/08/10 05:22:46;;;;;;;1.55;0.60;;;20.90;68.50;;;;;;5070641;28;20044;-61
2023/08/10 05:25:12;;;;;;;1.95;0.80;;;20.90;68.40;;;;;;5070492;28;20396;-60
2023/08/10 05:27:38;;;;;;;2.65;0.70;;;20.90;68.40;;;;;;5071019;28;20072;-60
2023/08/10 05:30:06;;;;;;;2.03;0.60;;;20.90;68.40;;;;;;5071583;28;20408;-60
2023/08/10 05:32:31;;;;;;;1.40;0.60;;;20.90;68.40;;;;;;5071943;28;20063;-60
2023/08/10 05:34:57;;;;;;;1.73;0.57;;;20.90;68.50;;;;;;5072056;28;20036;-60
2023/08/10 05:37:22;;;;;;;2.38;0.60;;;20.90;68.50;;;;;;5071347;28;20551;-60
2023/08/10 05:39:48;;;;;;;1.48;0.60;;;20.90;68.50;;;;;;5069388;28;20036;-60
2023/08/10 05:42:13;;;;;;;1.95;0.77;;;20.90;68.50;;;;;;5065255;28;20055;-60
2023/08/10 05:44:39;;;;;;;1.77;0.68;;;20.90;68.50;;;;;;5070790;28;20055;-60
2023/08/10 05:47:05;;;;;;;6.93;0.80;;;20.90;68.50;;;;;;5072268;28;20122;-60
2023/08/10 05:49:30;;;;;;;1.80;0.80;;;21.00;68.60;;;;;;5072261;28;20207;-61
2023/08/10 05:51:56;;;;;;;2.58;0.77;;;20.90;68.60;;;;;;5071049;28;20041;-60
2023/08/10 05:54:21;;;;;;;3.88;0.88;;;20.90;68.80;;;;;;5071785;28;20483;-60
2023/08/10 05:56:47;;;;;;;4.28;0.90;;;21.00;69.10;;;;;;5070361;28;20094;-61
2023/08/10 05:59:13;;;;;;;4.35;0.80;;;21.00;69.10;;;;;;5071721;28;20117;-61
2023/08/10 06:01:43;;;;;;;3.88;0.80;;;21.00;69.20;;;;;;5070952;28;20335;-61
2023/08/10 06:04:10;;;;;;;2.25;0.65;;;21.00;69.30;;;;;;5072220;28;20045;-61
2023/08/10 06:06:36;;;;;;;3.28;0.70;;;21.00;69.30;;;;;;5070554;28;20063;-61
2023/08/10 06:09:02;;;;;;;2.17;0.60;;;21.00;69.30;;;;;;5072220;28;20045;-61
2023/08/10 06:11:27;;;;;;;2.70;0.80;;;21.00;69.30;;;;;;5072194;28;20369;-60
2023/08/10 06:13:53;;;;;;;3.50;0.80;;;21.00;69.30;;;;;;5070885;28;20421;-61
2023/08/10 06:16:18;;;;;;;3.90;1.10;;;21.10;69.40;;;;;;5070731;28;20048;-59
2023/08/10 06:18:44;;;;;;;5.13;0.90;;;21.10;69.50;;;;;;5070482;28;20052;-61
2023/08/10 06:21:10;;;;;;;1.13;0.73;;;21.10;69.60;;;;;;5071263;28;20043;-61
2023/08/10 06:23:36;;;;;;;4.82;0.80;;;21.00;69.60;;;;;;5071306;28;20131;-61
2023/08/10 06:26:05;;;;;;;4.43;1.25;;;21.10;69.70;;;;;;5072104;28;20040;-61
2023/08/10 06:28:31;;;;;;;3.58;0.77;;;21.10;69.80;;;;;;5071309;28;20064;-61
2023/08/10 06:30:56;;;;;;;3.47;0.85;;;21.10;69.80;;;;;;5070335;28;20087;-61
2023/08/10 06:33:22;;;;;;;6.07;0.82;;;21.10;69.80;;;;;;5070388;28;20621;-60
2023/08/10 06:35:47;;;;;;;4.68;0.90;;;21.10;69.90;;;;;;5071433;28;20041;-61
2023/08/10 06:38:14;;;;;;;2.25;0.80;;;21.10;69.90;;;;;;5071146;28;20088;-61
2023/08/10 06:40:39;;;;;;;2.83;0.82;;;21.20;70.00;;;;;;5070922;28;20121;-61
2023/08/10 06:43:05;;;;;;;2.80;0.80;;;21.20;70.00;;;;;;5074317;28;20047;-61
2023/08/10 06:45:30;;;;;;;3.35;0.98;;;21.20;70.10;;;;;;5074315;28;20036;-61
2023/08/10 06:47:56;;;;;;;4.15;1.10;;;21.20;70.10;;;;;;5074428;28;20052;-62
2023/08/10 06:50:22;;;;;;;2.67;0.82;;;21.20;70.10;;;;;;5075097;28;20032;-62
2023/08/10 06:52:48;;;;;;;3.53;0.90;;;21.20;70.10;;;;;;5074729;28;20126;-61
2023/08/10 06:55:13;;;;;;;3.75;0.82;;;21.20;70.10;;;;;;5073184;28;20476;-61
2023/08/10 06:57:39;;;;;;;3.53;0.90;;;21.20;70.80;;;;;;5073617;28;20045;-61
2023/08/10 07:00:07;;;;;;;2.40;0.90;;;21.30;70.30;;;;;;5075270;28;20037;-61
2023/08/10 07:02:34;;;;;;;4.70;0.93;;;21.20;70.20;;;;;;5074112;28;20055;-61
2023/08/10 07:05:00;;;;;;;4.45;1.15;;;21.30;70.40;;;;;;5075080;28;20120;-60
2023/08/10 07:07:26;;;;;;;2.28;0.82;;;21.30;70.40;;;;;;5075105;28;20129;-60
2023/08/10 07:09:51;;;;;;;3.92;1.02;;;21.30;70.30;;;;;;5074132;28;20086;-61
2023/08/10 07:12:17;;;;;;;3.22;1.00;;;21.30;70.40;;;;;;5075114;28;20044;-61
2023/08/10 07:14:42;;;;;;;2.10;0.70;;;21.30;70.40;;;;;;5074570;28;20064;-61
2023/08/10 07:17:08;;;;;;;3.35;0.70;;;21.30;70.40;;;;;;5073422;28;20123;-60
2023/08/10 07:19:35;;;;;;;2.13;0.90;;;21.30;70.40;;;;;;5073987;28;20038;-61
2023/08/10 07:22:00;;;;;;;3.60;0.90;;;21.30;70.40;;;;;;5074298;28;20037;-61
2023/08/10 07:24:26;;;;;;;2.70;0.75;;;21.40;70.50;;;;;;5072278;28;20373;-61
2023/08/10 07:26:54;;;;;;;3.80;0.90;;;21.40;70.50;;;;;;5073210;28;20041;-62
2023/08/10 07:29:20;;;;;;;4.35;1.15;;;21.40;70.50;;;;;;5073580;28;20590;-61
2023/08/10 07:31:46;;;;;;;4.85;0.93;;;21.40;70.50;;;;;;5057974;28;20052;-61
2023/08/10 07:34:13;;;;;;;3.97;0.87;;;21.40;70.60;;;;;;5044162;28;20044;-62
2023/08/10 07:36:38;;;;;;;3.13;0.82;;;21.40;70.50;;;;;;5066733;28;20102;-62
2023/08/10 07:39:04;;;;;;;2.33;1.00;;;21.40;70.50;;;;;;5073793;28;20041;-62
2023/08/10 07:41:30;;;;;;;3.45;0.90;;;21.50;70.60;;;;;;5073480;28;20388;-60
2023/08/10 07:43:55;;;;;;;4.07;0.98;;;21.40;70.60;;;;;;5069724;28;20086;-62
2023/08/10 07:46:21;;;;;;;3.67;0.80;;;21.40;70.60;;;;;;5072993;28;20029;-62
2023/08/10 07:48:46;;;;;;;1.65;0.68;;;21.50;70.70;;;;;;5071721;28;20040;-62
2023/08/10 07:51:13;;;;;;;5.88;0.90;;;21.50;70.80;;;;;;5072516;28;20094;-62
2023/08/10 07:53:38;;;;;;;3.85;0.90;;;21.50;70.70;;;;;;5072119;28;20032;-61
2023/08/10 07:56:04;;;;;;;2.10;0.75;;;21.50;70.60;;;;;;5073000;28;20476;-60
2023/08/10 07:58:30;;;;;;;5.47;0.85;;;21.50;70.60;;;;;;5072008;28;20040;-62
2023/08/10 08:00:55;;;;;;;5.55;1.20;;;21.50;70.60;;;;;;5072750;28;20111;-62
2023/08/10 08:03:21;;;;;;;6.68;1.20;;;21.50;70.50;;;;;;5071390;28;20415;-62
2023/08/10 08:05:47;;;;;;;4.10;1.00;;;21.50;70.60;;;;;;5069604;28;20032;-62
2023/08/10 08:08:12;;;;;;;5.80;0.80;;;21.50;70.60;;;;;;5068863;28;20071;-61
2023/08/10 08:10:38;;;;;;;3.38;1.10;;;21.60;70.70;;;;;;5055460;28;20072;-63
2023/08/10 08:13:06;;;;;;;4.45;0.90;;;21.60;70.70;;;;;;5064825;28;20103;-63
2023/08/10 08:15:33;;;;;;;3.92;0.80;;;21.60;70.70;;;;;;5068438;28;20029;-63
2023/08/10 08:18:37;;;;;;;4.38;0.98;;;21.60;70.60;;;;;;5066961;28;20408;-62
2023/08/10 08:21:07;;;;;;;2.67;0.93;;;21.60;70.70;;;;;;5071214;28;20115;-63
2023/08/10 08:23:32;;;;;;;7.10;0.98;;;21.70;70.60;;;;;;5072776;28;20071;-63
2023/08/10 08:25:58;;;;;;;3.72;1.10;;;21.70;70.60;;;;;;5072435;28;20476;-63
2023/08/10 08:28:24;;;;;;;2.17;0.52;;;21.70;70.60;;;;;;5067464;28;20115;-62
2023/08/10 08:30:50;;;;;;;2.05;0.80;;;21.70;70.50;;;;;;5062756;28;20427;-62
2023/08/10 08:33:16;;;;;;;4.72;0.85;;;21.70;70.50;;;;;;5057472;28;20046;-61
2023/08/10 08:35:44;;;;;;;4.57;0.80;;;21.70;70.50;;;;;;5066316;28;20047;-61
2023/08/10 08:38:09;;;;;;;6.82;0.82;;;21.70;70.50;;;;;;5069879;28;20040;-63
2023/08/10 08:40:35;;;;;;;5.03;1.05;;;21.70;70.40;;;;;;5071020;28;20105;-62
2023/08/10 08:43:02;;;;;;;6.05;0.95;;;21.70;70.30;;;;;;5050095;28;20047;-62
2023/08/10 08:45:28;;;;;;;4.78;1.00;;;21.80;70.20;;;;;;5052213;28;20084;-64
2023/08/10 08:47:54;;;;;;;3.65;0.77;;;21.80;70.00;;;;;;5070506;28;20048;-64
2023/08/10 08:50:19;;;;;;;3.88;0.93;;;21.80;69.90;;;;;;5072656;28;20415;-64
2023/08/10 08:52:45;;;;;;;6.25;0.93;;;21.70;69.80;;;;;;5071081;28;20051;-63
2023/08/10 08:55:11;;;;;;;3.65;0.73;;;21.80;69.90;;;;;;5070602;28;20028;-61
2023/08/10 08:57:38;;;;;;;6.35;1.02;;;21.80;69.90;;;;;;5071393;28;20117;-62
2023/08/10 09:00:06;;;;;;;8.43;1.17;;;21.80;69.90;;;;;;5068154;28;20127;-60
2023/08/10 09:02:32;;;;;;;5.50;1.52;;;21.80;69.90;;;;;;5064596;28;20045;-62
2023/08/10 09:04:59;;;;;;;3.78;0.90;;;21.80;69.90;;;;;;5060931;28;20037;-62
2023/08/10 09:07:26;;;;;;;4.85;1.00;;;21.80;70.00;;;;;;5057430;28;20481;-62
2023/08/10 09:09:53;;;;;;;4.43;0.80;;;21.80;70.00;;;;;;5066121;28;20036;-62
2023/08/10 09:12:35;;;;;;;4.50;1.13;;;21.80;70.10;;;;;;5070347;28;20052;-63
2023/08/10 09:15:05;;;;;;;4.45;1.10;;;21.80;70.10;;;;;;5070290;28;20055;-61
2023/08/10 09:17:46;;;;;;;5.85;0.80;;;21.80;70.20;;;;;;5060806;28;20433;-62
2023/08/10 09:20:22;;;;;;;4.82;0.90;;;21.80;70.20;;;;;;5056765;28;20049;-62
2023/08/10 09:22:53;;;;;;;3.03;0.90;;;21.70;70.20;;;;;;5062568;28;20042;-62
2023/08/10 09:25:19;;;;;;;3.63;1.00;;;21.80;70.30;;;;;;5060630;28;20044;-62
2023/08/10 09:27:48;;;;;;;4.32;0.93;;;21.70;70.30;;;;;;5071271;28;20044;-62
2023/08/10 09:30:14;;;;;;;3.95;0.90;;;21.80;70.40;;;;;;5071261;28;20036;-62
2023/08/10 09:32:39;;;;;;;4.95;0.90;;;21.80;70.40;;;;;;5071565;28;20122;-63
2023/08/10 09:35:06;;;;;;;4.07;1.08;;;21.80;70.50;;;;;;5071025;28;20071;-62
2023/08/10 09:37:31;;;;;;;3.95;0.80;;;21.80;70.40;;;;;;5071471;28;20460;-62
2023/08/10 09:40:00;;;;;;;5.18;1.05;;;21.80;70.40;;;;;;5071392;28;20037;-62
2023/08/10 09:42:25;;;;;;;5.18;0.85;;;21.80;70.50;;;;;;5072379;28;20123;-64
2023/08/10 09:44:51;;;;;;;2.38;0.82;;;21.70;70.40;;;;;;5070102;28;20131;-63
2023/08/10 09:47:18;;;;;;;5.95;1.10;;;21.80;70.50;;;;;;5072333;28;20040;-63
2023/08/10 09:49:57;;;;;;;5.65;0.95;;;21.80;70.40;;;;;;5070322;28;20399;-63
2023/08/10 09:52:24;;;;;;;12.40;1.55;;;21.70;70.20;;;;;;5071721;28;20100;-63
2023/08/10 09:54:50;;;;;;;4.10;0.90;;;21.70;70.20;;;;;;5071772;28;20041;-63
2023/08/10 09:57:17;;;;;;;4.68;1.00;;;21.70;70.20;;;;;;5070956;28;20079;-61
2023/08/10 09:59:43;;;;;;;8.80;1.05;;;21.70;70.00;;;;;;5060289;28;20039;-65
2023/08/10 10:02:09;;;;;;;2.63;1.00;;;21.70;69.90;;;;;;5039498;28;20052;-70
2023/08/10 10:04:35;;;;;;;5.75;1.30;;;21.70;69.90;;;;;;5055015;28;20095;-63
2023/08/10 10:07:00;;;;;;;6.05;1.10;;;21.70;69.90;;;;;;5092457;28;20483;-62
2023/08/10 10:09:27;;;;;;;6.18;0.85;;;21.70;69.90;;;;;;5048748;28;20059;-63
2023/08/10 10:11:52;;;;;;;5.38;1.10;;;21.70;70.00;;;;;;5063533;28;20053;-63
2023/08/10 10:14:18;;;;;;;5.80;1.15;;;21.70;70.20;;;;;;5067601;28;20373;-64
2023/08/10 10:16:44;;;;;;;5.78;1.20;;;21.70;70.10;;;;;;5043300;28;20052;-63
2023/08/10 10:19:09;;;;;;;5.50;1.00;;;21.70;70.20;;;;;;5087361;28;20045;-63
2023/08/10 10:21:35;;;;;;;4.15;1.20;;;21.70;70.10;;;;;;5068782;28;20043;-64
2023/08/10 10:24:04;;;;;;;3.88;1.20;;;21.70;70.00;;;;;;5074140;28;20048;-64
2023/08/10 10:26:29;;;;;;;6.25;1.20;;;21.70;70.20;;;;;;5074472;28;20496;-63
2023/08/10 10:29:12;;;;;;;3.03;1.00;;;21.70;70.30;;;;;;5075089;28;20041;-64
2023/08/10 10:31:38;;;;;;;5.38;1.10;;;21.70;70.20;;;;;;5073486;28;20063;-65
2023/08/10 10:34:04;;;;;;;3.75;1.10;;;21.70;70.20;;;;;;5056917;28;20045;-64
2023/08/10 10:36:31;;;;;;;4.00;1.25;;;21.70;70.20;;;;;;5075473;28;20047;-63
2023/08/10 10:39:04;;;;;;;2.92;0.90;;;21.70;70.10;;;;;;5070431;28;20049;-64
2023/08/10 10:41:31;;;;;;;2.47;0.93;;;21.70;69.90;;;;;;5054013;28;20546;-75
2023/08/10 10:44:02;;;;;;;5.30;1.27;;;21.70;69.70;;;;;;5065601;28;20048;-64
2023/08/10 10:46:33;;;;;;;6.95;1.30;;;21.70;69.70;;;;;;5068610;28;20057;-64
2023/08/10 10:49:07;;;;;;;4.00;1.30;;;21.70;69.70;;;;;;5069945;28;20075;-64
2023/08/10 10:51:33;;;;;;;5.50;1.20;;;21.70;69.70;;;;;;5073621;28;20127;-64
2023/08/10 10:53:59;;;;;;;7.15;1.65;;;21.70;69.60;;;;;;5072378;28;20431;-65
2023/08/10 10:56:25;;;;;;;6.95;2.17;;;21.70;69.60;;;;;;5073263;28;20517;-64
2023/08/10 10:58:50;;;;;;;11.50;2.20;;;21.60;69.60;;;;;;5074587;28;20053;-64
2023/08/10 11:01:20;;;;;;;9.27;2.05;;;21.60;69.60;;;;;;5072752;28;20041;-64
2023/08/10 11:03:55;;;;;;;8.98;2.53;;;21.60;69.70;;;;;;5074541;28;20043;-65
2023/08/10 11:06:23;;;;;;;11.73;2.60;;;21.70;69.90;;;;;;5075221;28;20036;-65
2023/08/10 11:08:53;;;;;;;7.43;2.28;;;21.60;69.90;;;;;;5072578;28;20508;-64
2023/08/10 11:11:19;;;;;;;8.73;3.10;;;21.60;69.90;;;;;;5074799;28;20533;-64
2023/08/10 11:13:44;;;;;;;9.95;2.97;;;21.60;69.90;;;;;;5073667;28;20136;-64
2023/08/10 11:16:10;;;;;;;9.38;2.33;;;21.60;69.80;;;;;;5074527;28;20123;-65
2023/08/10 11:18:39;;;;;;;7.68;2.85;;;21.60;69.80;;;;;;5074536;28;20051;-64
2023/08/10 11:21:08;;;;;;;8.30;2.88;;;21.60;69.70;;;;;;5074889;28;20488;-64
2023/08/10 11:23:34;;;;;;;6.55;2.33;;;21.60;69.70;;;;;;5073790;28;20131;-65
2023/08/10 11:26:02;;;;;;;8.35;2.70;;;21.60;69.80;;;;;;5074958;28;20112;-64
2023/08/10 11:28:27;;;;;;;10.18;3.03;;;21.60;69.70;;;;;;5073329;28;20046;-64
2023/08/10 11:30:53;;;;;;;8.38;2.53;;;21.60;69.70;;;;;;5072540;28;20063;-64
2023/08/10 11:33:19;;;;;;;8.63;3.13;;;21.60;69.70;;;;;;5073348;28;20053;-64
2023/08/10 11:35:51;;;;;;;7.93;2.70;;;21.60;69.70;;;;;;5074404;28;20040;-64
2023/08/10 11:38:17;;;;;;;7.80;2.33;;;21.60;69.70;;;;;;5074425;28;20079;-64
2023/08/10 11:40:42;;;;;;;9.35;2.75;;;21.60;69.70;;;;;;5074460;28;20076;-64
2023/08/10 11:43:12;;;;;;;9.57;3.00;;;21.60;69.70;;;;;;5073450;28;20055;-65
2023/08/10 11:45:38;;;;;;;9.50;2.22;;;21.60;69.70;;;;;;5072825;28;20041;-64
2023/08/10 11:48:09;;;;;;;8.07;2.28;;;21.60;69.70;;;;;;5074506;28;20054;-64
2023/08/10 11:50:35;;;;;;;8.05;2.20;;;21.60;69.70;;;;;;5072230;28;20036;-64
2023/08/10 11:53:11;;;;;;;6.82;2.53;;;21.60;69.70;;;;;;5067394;28;20545;-64
2023/08/10 11:55:43;;;;;;;9.68;2.20;;;21.60;69.70;;;;;;5058845;28;20065;-64
2023/08/10 11:58:09;;;;;;;9.95;2.80;;;21.60;69.70;;;;;;5059684;28;20047;-64
2023/08/10 12:00:35;;;;;;;8.48;2.58;;;21.50;69.60;;;;;;5059111;28;20049;-64
2023/08/10 12:03:11;;;;;;;8.02;2.83;;;21.60;70.20;;;;;;5053654;28;20396;-64
2023/08/10 12:05:44;;;;;;;9.25;2.50;;;21.60;69.60;;;;;;5052928;28;20048;-64
2023/08/10 12:08:12;;;;;;;9.32;2.50;;;21.60;69.60;;;;;;5054160;28;20037;-64
2023/08/10 12:10:43;;;;;;;10.40;2.78;;;21.60;69.70;;;;;;5053954;28;20037;-64
2023/08/10 12:13:10;;;;;;;6.55;2.10;;;21.60;69.70;;;;;;5052917;28;20045;-64
2023/08/10 12:15:37;;;;;;;8.77;2.30;;;21.60;69.70;;;;;;5053611;28;20074;-64
2023/08/10 12:18:04;;;;;;;7.13;2.63;;;21.60;69.70;;;;;;5051923;28;20049;-65
2023/08/10 12:20:30;;;;;;;8.68;2.75;;;21.60;69.60;;;;;;5053951;28;20045;-64
2023/08/10 12:22:56;;;;;;;7.47;2.70;;;21.60;69.70;;;;;;5053443;28;20052;-65
2023/08/10 12:25:22;;;;;;;9.07;2.33;;;21.60;69.70;;;;;;5053192;28;20072;-64
2023/08/10 12:27:47;;;;;;;6.00;2.05;;;21.60;69.60;;;;;;5053278;28;20386;-64
2023/08/10 12:30:13;;;;;;;7.45;2.30;;;21.60;69.60;;;;;;5053881;28;20381;-64
2023/08/10 12:32:39;;;;;;;7.53;2.28;;;21.60;69.50;;;;;;5052026;28;20131;-65
2023/08/10 12:35:05;;;;;;;7.10;2.30;;;21.60;69.60;;;;;;5052295;28;20469;-64
2023/08/10 12:37:30;;;;;;;8.13;2.22;;;21.60;69.60;;;;;;5053599;28;20045;-64
2023/08/10 12:39:56;;;;;;;9.38;2.30;;;21.60;69.60;;;;;;5051484;28;20040;-64
2023/08/10 12:42:24;;;;;;;9.93;2.78;;;21.70;69.60;;;;;;5053404;28;20116;-64
2023/08/10 12:44:50;;;;;;;;;;;21.70;69.70;;;;;;5053277;28;20067;-64